Michael S — WDE9794 — position and weather

sailwx.info

Track history (hours):
 
Tides and Currents Weather Stations Pressure Air Temp Water Temp Dewpoint Dewpoint Depression Visibility Wind Speed Wind Dir Waves Ship Positions

Michael S

Owner: Bisso Tow Boats Inc., New Orleans, LA. More information available from US FCC via Universal Licensing System and Coast Guard Vessel Documentation Center.

Last reported at 2016-Apr-30 10:31 UTC. Time now 2016-Apr-30 11:17 UTC.
Position N 29°57' W 090°01'.

Length 33 m; draft 3 m.

Type: Towing. MMSI: 367413700.

Date/timePositionNaut miles runAvg speedWind from/ knotsBaromVisibWave heightAir tempDewpointWater temp
2016-Apr-30 10:31N 29°57' W 090°01'0 0.0
2016-Apr-30 09:28N 29°57' W 090°01'0 0.0
2016-Apr-30 08:31N 29°57' W 090°01'0 0.0
2016-Apr-30 07:31N 29°57' W 090°01'0 0.0
2016-Apr-30 06:31N 29°57' W 090°01'0 0.0
2016-Apr-30 05:31N 29°57' W 090°01'0 0.0
2016-Apr-30 04:31N 29°57' W 090°01'0 0.0
2016-Apr-30 03:31N 29°57' W 090°01'0 0.0
2016-Apr-30 02:31N 29°57' W 090°01'0 0.0
2016-Apr-30 01:31N 29°57' W 090°01'2 2.0
2016-Apr-30 00:28N 29°56' W 089°59'2 2.1
2016-Apr-29 23:33N 29°57' W 090°01'0 0.2
2016-Apr-29 22:32N 29°57' W 090°01'0 0.0
2016-Apr-29 21:32N 29°57' W 090°01'0 0.0
2016-Apr-29 20:32N 29°57' W 090°01'0 0.0
2016-Apr-29 19:32N 29°57' W 090°01'0 0.0
2016-Apr-29 18:32N 29°57' W 090°01'0 0.0
2016-Apr-29 17:32N 29°57' W 090°01'0 0.0
2016-Apr-29 16:32N 29°57' W 090°01'0 0.0
2016-Apr-29 15:32N 29°57' W 090°01'0 0.0
2016-Apr-29 14:32N 29°57' W 090°01'0 0.0
2016-Apr-29 13:32N 29°57' W 090°01'0 0.0
2016-Apr-29 12:32N 29°57' W 090°01'0 0.0
2016-Apr-29 11:32N 29°57' W 090°01'0 0.0
2016-Apr-29 10:32N 29°57' W 090°01'0 0.0
2016-Apr-29 09:32N 29°57' W 090°01'0 0.0
2016-Apr-29 08:32N 29°57' W 090°01'0 0.0
2016-Apr-29 07:32N 29°57' W 090°01'0 0.0
2016-Apr-29 06:32N 29°57' W 090°01'0 0.0
2016-Apr-29 05:32N 29°57' W 090°01'0 0.0
2016-Apr-29 04:32N 29°57' W 090°01'0 0.0
2016-Apr-29 03:32N 29°57' W 090°01'0 0.0
2016-Apr-29 02:32N 29°57' W 090°01'0 0.0
2016-Apr-29 01:32N 29°57' W 090°01'0 0.0
2016-Apr-29 00:32N 29°57' W 090°01'0 0.0
2016-Apr-28 23:32N 29°57' W 090°01'0 0.0
2016-Apr-28 22:32N 29°57' W 090°01'0 0.0
2016-Apr-28 21:32N 29°57' W 090°01'0 0.0
2016-Apr-28 20:32N 29°57' W 090°01'0 0.0
2016-Apr-28 19:32N 29°57' W 090°01'0 0.0
2016-Apr-28 18:32N 29°57' W 090°01'5 2.6
2016-Apr-28 16:33N 29°55' W 089°56'0 0.2
2016-Apr-28 15:04N 29°55' W 089°56'0 0.1
2016-Apr-28 14:33N 29°55' W 089°56'2 0.5
2016-Apr-28 10:21N 29°54' W 089°54'2 2.4
2016-Apr-28 09:21N 29°55' W 089°56'1 1.4
2016-Apr-28 08:33N 29°55' W 089°58'10 9.6
2016-Apr-28 07:33N 29°57' W 090°09'13 1.1
2016-Apr-27 20:26N 29°57' W 090°23'9 1.5
2016-Apr-27 14:19N 29°55' W 090°12'2 0.8
2016-Apr-27 12:29N 29°56' W 090°11'  
2016-Apr-23 15:13N 29°58' W 090°18'5 6.6
2016-Apr-23 14:28N 29°55' W 090°12'4 3.9
2016-Apr-23 13:33N 29°56' W 090°09'1 0.9
2016-Apr-23 12:33N 29°56' W 090°08'0 0.2
2016-Apr-23 11:33N 29°55' W 090°08'1 0.9
2016-Apr-23 10:28N 29°56' W 090°09'2 1.7
2016-Apr-23 09:31N 29°55' W 090°08'1 1.1
2016-Apr-23 08:33N 29°55' W 090°07'2 2.5
2016-Apr-23 07:33N 29°55' W 090°04'0 0.0
2016-Apr-23 06:33N 29°55' W 090°04'0 0.0
2016-Apr-23 05:33N 29°55' W 090°04'0 0.0
2016-Apr-23 04:33N 29°55' W 090°04'0 0.0
2016-Apr-23 03:30N 29°55' W 090°04'0 0.0
2016-Apr-23 02:33N 29°55' W 090°04'0 0.0
2016-Apr-23 01:34N 29°55' W 090°04'0 0.3
2016-Apr-23 00:33N 29°55' W 090°04'0 0.3
2016-Apr-22 23:32N 29°55' W 090°04'0 0.0
2016-Apr-22 22:32N 29°55' W 090°04'1 1.1
2016-Apr-22 21:31N 29°56' W 090°03'1 1.3
2016-Apr-22 20:33N 29°57' W 090°03'2 2.1
2016-Apr-22 19:32N 29°57' W 090°01'1 1.1
2016-Apr-22 18:33N 29°56' W 089°60'2 2.2
2016-Apr-22 17:31N 29°58' W 090°02'0 0.0
2016-Apr-22 16:31N 29°58' W 090°02'0 0.0
2016-Apr-22 15:31N 29°58' W 090°02'0 0.0
2016-Apr-22 14:31N 29°58' W 090°02'0 0.0
2016-Apr-22 13:31N 29°58' W 090°02'0 0.0
2016-Apr-22 12:31N 29°58' W 090°02'0 0.0
2016-Apr-22 11:31N 29°58' W 090°02'0 0.0
2016-Apr-22 10:31N 29°58' W 090°02'0 0.0
2016-Apr-22 09:31N 29°58' W 090°02'0 0.0
2016-Apr-22 08:31N 29°58' W 090°02'0 0.0
2016-Apr-22 07:32N 29°58' W 090°02'2 1.9
2016-Apr-22 06:33N 29°56' W 090°03'2 1.8
2016-Apr-22 05:33N 29°57' W 090°02'1 0.6
2016-Apr-22 04:31N 29°57' W 090°01'0 0.0
2016-Apr-22 03:31N 29°57' W 090°01'0 0.0
2016-Apr-22 02:31N 29°57' W 090°01'0 0.0
2016-Apr-22 01:31N 29°57' W 090°01'0 0.4
2016-Apr-22 00:31N 29°57' W 090°01'1 1.2
2016-Apr-21 23:33N 29°58' W 090°02'2 2.2
2016-Apr-21 22:31N 29°55' W 090°04'0 0.2
2016-Apr-21 21:33N 29°55' W 090°04'4 4.1
2016-Apr-21 20:32N 29°56' W 090°08'1 0.9
2016-Apr-21 19:30N 29°55' W 090°08'0 0.0
2016-Apr-21 18:27N 29°55' W 090°08'4 4.3
2016-Apr-21 17:32N 29°55' W 090°04'1 1.0
2016-Apr-21 16:33N 29°55' W 090°05'1 1.1
2016-Apr-21 15:33N 29°55' W 090°06'0 0.0
2016-Apr-21 14:33N 29°55' W 090°06'4 4.0
2016-Apr-21 13:34N 29°57' W 090°02'1 1.3
2016-Apr-21 12:31N 29°57' W 090°01'0 0.0
2016-Apr-21 11:31N 29°57' W 090°01'0 0.0
2016-Apr-21 10:31N 29°57' W 090°01'0 0.0
2016-Apr-21 09:31N 29°57' W 090°01'0 0.0
2016-Apr-21 08:31N 29°57' W 090°01'0 0.0
2016-Apr-21 07:31N 29°57' W 090°01'0 0.0
2016-Apr-21 06:31N 29°57' W 090°01'0 0.0
2016-Apr-21 05:31N 29°57' W 090°01'1 1.0
2016-Apr-21 04:29N 29°58' W 090°02'1 0.7
2016-Apr-21 03:33N 29°59' W 090°01'1 1.2
2016-Apr-21 02:32N 29°60' W 090°01'2 2.4
2016-Apr-21 01:33N 29°58' W 090°02'5 4.7
2016-Apr-21 00:33N 29°55' W 089°57'0 0.4
2016-Apr-20 23:31N 29°55' W 089°56'0 0.4
2016-Apr-20 22:33N 29°55' W 089°57'4 3.5
2016-Apr-20 21:33N 29°57' W 090°00'1 1.0
2016-Apr-20 20:34N 29°56' W 089°60'3 2.9
2016-Apr-20 19:33N 29°55' W 089°56'0 0.4
2016-Apr-20 18:30N 29°55' W 089°57'3 2.8
2016-Apr-20 17:33N 29°56' W 089°60'2 1.5
2016-Apr-20 16:31N 29°57' W 090°01'0 0.0
2016-Apr-20 15:31N 29°57' W 090°01'5 4.7
2016-Apr-20 14:33N 29°55' W 090°05'3 2.7
2016-Apr-20 13:33N 29°56' W 090°08'0 0.4
2016-Apr-20 12:33N 29°56' W 090°08'0 0.0
2016-Apr-20 11:33N 29°55' W 090°08'3 2.7
2016-Apr-20 10:33N 29°55' W 090°05'  
Track history (hours):
 
Tides and Currents Weather Stations Pressure Air Temp Water Temp Dewpoint Dewpoint Depression Visibility Wind Speed Wind Dir Waves Ship Positions

Michael S

Owner: Bisso Tow Boats Inc., New Orleans, LA. More information available from US FCC via Universal Licensing System and Coast Guard Vessel Documentation Center.

Last reported at 2016-Apr-30 10:31 UTC. Time now 2016-Apr-30 11:17 UTC.
Position N 29°57' W 090°01'.

Length 33 m; draft 3 m.

Type: Towing. MMSI: 367413700.

Date/timePositionNaut miles runAvg speedWind from/ knotsBaromVisibWave heightAir tempDewpointWater temp
2016-Apr-30 10:31N 29°57' W 090°01'0 0.0
2016-Apr-30 09:28N 29°57' W 090°01'0 0.0
2016-Apr-30 08:31N 29°57' W 090°01'0 0.0
2016-Apr-30 07:31N 29°57' W 090°01'0 0.0
2016-Apr-30 06:31N 29°57' W 090°01'0 0.0
2016-Apr-30 05:31N 29°57' W 090°01'0 0.0
2016-Apr-30 04:31N 29°57' W 090°01'0 0.0
2016-Apr-30 03:31N 29°57' W 090°01'0 0.0
2016-Apr-30 02:31N 29°57' W 090°01'0 0.0
2016-Apr-30 01:31N 29°57' W 090°01'2 2.0
2016-Apr-30 00:28N 29°56' W 089°59'2 2.1
2016-Apr-29 23:33N 29°57' W 090°01'0 0.2
2016-Apr-29 22:32N 29°57' W 090°01'0 0.0
2016-Apr-29 21:32N 29°57' W 090°01'0 0.0
2016-Apr-29 20:32N 29°57' W 090°01'0 0.0
2016-Apr-29 19:32N 29°57' W 090°01'0 0.0
2016-Apr-29 18:32N 29°57' W 090°01'0 0.0
2016-Apr-29 17:32N 29°57' W 090°01'0 0.0
2016-Apr-29 16:32N 29°57' W 090°01'0 0.0
2016-Apr-29 15:32N 29°57' W 090°01'0 0.0
2016-Apr-29 14:32N 29°57' W 090°01'0 0.0
2016-Apr-29 13:32N 29°57' W 090°01'0 0.0
2016-Apr-29 12:32N 29°57' W 090°01'0 0.0
2016-Apr-29 11:32N 29°57' W 090°01'0 0.0
2016-Apr-29 10:32N 29°57' W 090°01'0 0.0
2016-Apr-29 09:32N 29°57' W 090°01'0 0.0
2016-Apr-29 08:32N 29°57' W 090°01'0 0.0
2016-Apr-29 07:32N 29°57' W 090°01'0 0.0
2016-Apr-29 06:32N 29°57' W 090°01'0 0.0
2016-Apr-29 05:32N 29°57' W 090°01'0 0.0
2016-Apr-29 04:32N 29°57' W 090°01'0 0.0
2016-Apr-29 03:32N 29°57' W 090°01'0 0.0
2016-Apr-29 02:32N 29°57' W 090°01'0 0.0
2016-Apr-29 01:32N 29°57' W 090°01'0 0.0
2016-Apr-29 00:32N 29°57' W 090°01'0 0.0
2016-Apr-28 23:32N 29°57' W 090°01'0 0.0
2016-Apr-28 22:32N 29°57' W 090°01'0 0.0
2016-Apr-28 21:32N 29°57' W 090°01'0 0.0
2016-Apr-28 20:32N 29°57' W 090°01'0 0.0
2016-Apr-28 19:32N 29°57' W 090°01'0 0.0
2016-Apr-28 18:32N 29°57' W 090°01'5 2.6
2016-Apr-28 16:33N 29°55' W 089°56'0 0.2
2016-Apr-28 15:04N 29°55' W 089°56'0 0.1
2016-Apr-28 14:33N 29°55' W 089°56'2 0.5
2016-Apr-28 10:21N 29°54' W 089°54'2 2.4
2016-Apr-28 09:21N 29°55' W 089°56'1 1.4
2016-Apr-28 08:33N 29°55' W 089°58'10 9.6
2016-Apr-28 07:33N 29°57' W 090°09'13 1.1
2016-Apr-27 20:26N 29°57' W 090°23'9 1.5
2016-Apr-27 14:19N 29°55' W 090°12'2 0.8
2016-Apr-27 12:29N 29°56' W 090°11'  
2016-Apr-23 15:13N 29°58' W 090°18'5 6.6
2016-Apr-23 14:28N 29°55' W 090°12'4 3.9
2016-Apr-23 13:33N 29°56' W 090°09'1 0.9
2016-Apr-23 12:33N 29°56' W 090°08'0 0.2
2016-Apr-23 11:33N 29°55' W 090°08'1 0.9
2016-Apr-23 10:28N 29°56' W 090°09'2 1.7
2016-Apr-23 09:31N 29°55' W 090°08'1 1.1
2016-Apr-23 08:33N 29°55' W 090°07'2 2.5
2016-Apr-23 07:33N 29°55' W 090°04'0 0.0
2016-Apr-23 06:33N 29°55' W 090°04'0 0.0
2016-Apr-23 05:33N 29°55' W 090°04'0 0.0
2016-Apr-23 04:33N 29°55' W 090°04'0 0.0
2016-Apr-23 03:30N 29°55' W 090°04'0 0.0
2016-Apr-23 02:33N 29°55' W 090°04'0 0.0
2016-Apr-23 01:34N 29°55' W 090°04'0 0.3
2016-Apr-23 00:33N 29°55' W 090°04'0 0.3
2016-Apr-22 23:32N 29°55' W 090°04'0 0.0
2016-Apr-22 22:32N 29°55' W 090°04'1 1.1
2016-Apr-22 21:31N 29°56' W 090°03'1 1.3
2016-Apr-22 20:33N 29°57' W 090°03'2 2.1
2016-Apr-22 19:32N 29°57' W 090°01'1 1.1
2016-Apr-22 18:33N 29°56' W 089°60'2 2.2
2016-Apr-22 17:31N 29°58' W 090°02'0 0.0
2016-Apr-22 16:31N 29°58' W 090°02'0 0.0
2016-Apr-22 15:31N 29°58' W 090°02'0 0.0
2016-Apr-22 14:31N 29°58' W 090°02'0 0.0
2016-Apr-22 13:31N 29°58' W 090°02'0 0.0
2016-Apr-22 12:31N 29°58' W 090°02'0 0.0
2016-Apr-22 11:31N 29°58' W 090°02'0 0.0
2016-Apr-22 10:31N 29°58' W 090°02'0 0.0
2016-Apr-22 09:31N 29°58' W 090°02'0 0.0
2016-Apr-22 08:31N 29°58' W 090°02'0 0.0
2016-Apr-22 07:32N 29°58' W 090°02'2 1.9
2016-Apr-22 06:33N 29°56' W 090°03'2 1.8
2016-Apr-22 05:33N 29°57' W 090°02'1 0.6
2016-Apr-22 04:31N 29°57' W 090°01'0 0.0
2016-Apr-22 03:31N 29°57' W 090°01'0 0.0
2016-Apr-22 02:31N 29°57' W 090°01'0 0.0
2016-Apr-22 01:31N 29°57' W 090°01'0 0.4
2016-Apr-22 00:31N 29°57' W 090°01'1 1.2
2016-Apr-21 23:33N 29°58' W 090°02'2 2.2
2016-Apr-21 22:31N 29°55' W 090°04'0 0.2
2016-Apr-21 21:33N 29°55' W 090°04'4 4.1
2016-Apr-21 20:32N 29°56' W 090°08'1 0.9
2016-Apr-21 19:30N 29°55' W 090°08'0 0.0
2016-Apr-21 18:27N 29°55' W 090°08'4 4.3
2016-Apr-21 17:32N 29°55' W 090°04'1 1.0
2016-Apr-21 16:33N 29°55' W 090°05'1 1.1
2016-Apr-21 15:33N 29°55' W 090°06'0 0.0
2016-Apr-21 14:33N 29°55' W 090°06'4 4.0
2016-Apr-21 13:34N 29°57' W 090°02'1 1.3
2016-Apr-21 12:31N 29°57' W 090°01'0 0.0
2016-Apr-21 11:31N 29°57' W 090°01'0 0.0
2016-Apr-21 10:31N 29°57' W 090°01'0 0.0
2016-Apr-21 09:31N 29°57' W 090°01'0 0.0
2016-Apr-21 08:31N 29°57' W 090°01'0 0.0
2016-Apr-21 07:31N 29°57' W 090°01'0 0.0
2016-Apr-21 06:31N 29°57' W 090°01'0 0.0
2016-Apr-21 05:31N 29°57' W 090°01'1 1.0
2016-Apr-21 04:29N 29°58' W 090°02'1 0.7
2016-Apr-21 03:33N 29°59' W 090°01'1 1.2
2016-Apr-21 02:32N 29°60' W 090°01'2 2.4
2016-Apr-21 01:33N 29°58' W 090°02'5 4.7
2016-Apr-21 00:33N 29°55' W 089°57'0 0.4
2016-Apr-20 23:31N 29°55' W 089°56'0 0.4
2016-Apr-20 22:33N 29°55' W 089°57'4 3.5
2016-Apr-20 21:33N 29°57' W 090°00'1 1.0
2016-Apr-20 20:34N 29°56' W 089°60'3 2.9
2016-Apr-20 19:33N 29°55' W 089°56'0 0.4
2016-Apr-20 18:30N 29°55' W 089°57'3 2.8
2016-Apr-20 17:33N 29°56' W 089°60'2 1.5
2016-Apr-20 16:31N 29°57' W 090°01'0 0.0
2016-Apr-20 15:31N 29°57' W 090°01'5 4.7
2016-Apr-20 14:33N 29°55' W 090°05'3 2.7
2016-Apr-20 13:33N 29°56' W 090°08'0 0.4
2016-Apr-20 12:33N 29°56' W 090°08'0 0.0
2016-Apr-20 11:33N 29°55' W 090°08'3 2.7
2016-Apr-20 10:33N 29°55' W 090°05'  

Dump ship's entire track history